sensor_id;sensor_type;location;lat;lon;timestamp;temperature;humidity
44579;DHT22;37422;51.402;0.016;2022-09-24T00:01:22;12.80;99.90
44579;DHT22;37422;51.402;0.016;2022-09-24T00:03:56;12.80;99.90
44579;DHT22;37422;51.402;0.016;2022-09-24T00:06:29;12.70;99.90
44579;DHT22;37422;51.402;0.016;2022-09-24T00:08:57;12.70;99.90
44579;DHT22;37422;51.402;0.016;2022-09-24T00:11:27;12.70;99.90
44579;DHT22;37422;51.402;0.016;2022-09-24T00:13:56;12.60;99.90
44579;DHT22;37422;51.402;0.016;2022-09-24T00:16:27;12.60;99.90
44579;DHT22;37422;51.402;0.016;2022-09-24T00:18:59;12.50;99.90
44579;DHT22;37422;51.402;0.016;2022-09-24T00:21:32;12.50;99.90
44579;DHT22;37422;51.402;0.016;2022-09-24T00:24:12;12.50;99.90
44579;DHT22;37422;51.402;0.016;2022-09-24T00:27:04;12.40;99.90
44579;DHT22;37422;51.402;0.016;2022-09-24T00:29:37;12.40;99.90
44579;DHT22;37422;51.402;0.016;2022-09-24T00:32:07;12.60;99.90
44579;DHT22;37422;51.402;0.016;2022-09-24T00:34:42;12.30;99.90
44579;DHT22;37422;51.402;0.016;2022-09-24T00:37:15;12.20;99.90
44579;DHT22;37422;51.402;0.016;2022-09-24T00:39:45;12.20;99.90
44579;DHT22;37422;51.402;0.016;2022-09-24T00:42:17;12.20;99.90
44579;DHT22;37422;51.402;0.016;2022-09-24T00:44:52;12.10;99.90
44579;DHT22;37422;51.402;0.016;2022-09-24T00:47:34;12.00;99.90
44579;DHT22;37422;51.402;0.016;2022-09-24T00:53:02;12.00;99.90
44579;DHT22;37422;51.402;0.016;2022-09-24T00:55:39;11.90;99.90
44579;DHT22;37422;51.402;0.016;2022-09-24T00:58:11;11.90;99.90
44579;DHT22;37422;51.402;0.016;2022-09-24T01:00:41;11.80;99.90
44579;DHT22;37422;51.402;0.016;2022-09-24T01:03:17;11.70;99.90
44579;DHT22;37422;51.402;0.016;2022-09-24T01:05:46;11.70;99.90
44579;DHT22;37422;51.402;0.016;2022-09-24T01:08:20;11.60;99.90
44579;DHT22;37422;51.402;0.016;2022-09-24T01:31:23;11.30;99.90
44579;DHT22;37422;51.402;0.016;2022-09-24T01:34:03;11.20;99.90
44579;DHT22;37422;51.402;0.016;2022-09-24T01:36:35;11.20;99.90
44579;DHT22;37422;51.402;0.016;2022-09-24T01:39:05;11.20;99.90
44579;DHT22;37422;51.402;0.016;2022-09-24T01:41:35;11.20;99.90
44579;DHT22;37422;51.402;0.016;2022-09-24T01:44:06;11.20;99.90
44579;DHT22;37422;51.402;0.016;2022-09-24T01:46:42;11.20;99.90
44579;DHT22;37422;51.402;0.016;2022-09-24T01:49:14;11.20;99.90
44579;DHT22;37422;51.402;0.016;2022-09-24T01:51:56;11.20;99.90
44579;DHT22;37422;51.402;0.016;2022-09-24T01:54:36;11.20;99.90
44579;DHT22;37422;51.402;0.016;2022-09-24T01:57:20;11.20;99.90
44579;DHT22;37422;51.402;0.016;2022-09-24T02:00:03;11.20;99.90
44579;DHT22;37422;51.402;0.016;2022-09-24T02:05:32;11.10;99.90
44579;DHT22;37422;51.402;0.016;2022-09-24T02:08:21;11.10;99.90
44579;DHT22;37422;51.402;0.016;2022-09-24T02:14:09;11.00;99.90
44579;DHT22;37422;51.402;0.016;2022-09-24T02:16:46;11.00;99.90
44579;DHT22;37422;51.402;0.016;2022-09-24T02:19:23;10.90;99.90
44579;DHT22;37422;51.402;0.016;2022-09-24T02:21:58;10.90;99.90
44579;DHT22;37422;51.402;0.016;2022-09-24T02:24:39;10.90;99.90
44579;DHT22;37422;51.402;0.016;2022-09-24T02:27:11;10.80;99.90
44579;DHT22;37422;51.402;0.016;2022-09-24T02:29:45;10.80;99.90
44579;DHT22;37422;51.402;0.016;2022-09-24T02:32:17;10.80;99.90
44579;DHT22;37422;51.402;0.016;2022-09-24T02:34:59;10.70;99.90
44579;DHT22;37422;51.402;0.016;2022-09-24T02:37:41;10.80;99.90
44579;DHT22;37422;51.402;0.016;2022-09-24T02:40:15;10.90;99.90
44579;DHT22;37422;51.402;0.016;2022-09-24T02:42:46;11.00;99.90
44579;DHT22;37422;51.402;0.016;2022-09-24T02:45:28;11.10;99.90
44579;DHT22;37422;51.402;0.016;2022-09-24T02:47:59;11.20;99.90
44579;DHT22;37422;51.402;0.016;2022-09-24T02:50:30;11.40;99.90
44579;DHT22;37422;51.402;0.016;2022-09-24T02:53:03;11.50;99.90
44579;DHT22;37422;51.402;0.016;2022-09-24T02:55:39;11.60;99.90
44579;DHT22;37422;51.402;0.016;2022-09-24T02:58:06;11.70;99.90
44579;DHT22;37422;51.402;0.016;2022-09-24T03:00:50;11.80;99.90
44579;DHT22;37422;51.402;0.016;2022-09-24T03:03:17;12.00;99.90
44579;DHT22;37422;51.402;0.016;2022-09-24T03:05:49;12.00;99.90
44579;DHT22;37422;51.402;0.016;2022-09-24T03:08:22;12.10;99.90
44579;DHT22;37422;51.402;0.016;2022-09-24T03:10:55;12.20;99.90
44579;DHT22;37422;51.402;0.016;2022-09-24T03:13:26;12.20;99.90
44579;DHT22;37422;51.402;0.016;2022-09-24T03:15:57;12.30;99.90
44579;DHT22;37422;51.402;0.016;2022-09-24T03:18:26;12.30;99.90
44579;DHT22;37422;51.402;0.016;2022-09-24T03:21:18;12.30;99.90
44579;DHT22;37422;51.402;0.016;2022-09-24T03:23:49;12.40;99.90
44579;DHT22;37422;51.402;0.016;2022-09-24T03:26:19;12.40;99.90
44579;DHT22;37422;51.402;0.016;2022-09-24T03:28:49;12.50;99.90
44579;DHT22;37422;51.402;0.016;2022-09-24T03:31:20;12.50;99.90
44579;DHT22;37422;51.402;0.016;2022-09-24T03:33:50;12.50;99.90
44579;DHT22;37422;51.402;0.016;2022-09-24T03:36:23;12.60;99.90
44579;DHT22;37422;51.402;0.016;2022-09-24T03:38:55;12.60;99.90
44579;DHT22;37422;51.402;0.016;2022-09-24T03:41:30;12.60;99.90
44579;DHT22;37422;51.402;0.016;2022-09-24T03:43:57;12.60;99.90
44579;DHT22;37422;51.402;0.016;2022-09-24T03:46:25;12.70;99.90
44579;DHT22;37422;51.402;0.016;2022-09-24T03:49:09;12.70;99.90
44579;DHT22;37422;51.402;0.016;2022-09-24T03:51:36;12.60;99.90
44579;DHT22;37422;51.402;0.016;2022-09-24T03:54:04;12.70;99.90
44579;DHT22;37422;51.402;0.016;2022-09-24T03:56:36;12.70;99.90
44579;DHT22;37422;51.402;0.016;2022-09-24T03:59:06;12.70;99.90
44579;DHT22;37422;51.402;0.016;2022-09-24T04:01:34;12.70;99.90
44579;DHT22;37422;51.402;0.016;2022-09-24T04:04:04;12.60;99.90
44579;DHT22;37422;51.402;0.016;2022-09-24T04:06:32;12.60;99.90
44579;DHT22;37422;51.402;0.016;2022-09-24T04:09:00;12.50;99.90
44579;DHT22;37422;51.402;0.016;2022-09-24T04:11:29;12.50;99.90
44579;DHT22;37422;51.402;0.016;2022-09-24T04:13:57;12.50;99.90
44579;DHT22;37422;51.402;0.016;2022-09-24T04:16:29;12.50;99.90
44579;DHT22;37422;51.402;0.016;2022-09-24T04:18:57;12.60;99.90
44579;DHT22;37422;51.402;0.016;2022-09-24T04:21:24;12.60;99.90
44579;DHT22;37422;51.402;0.016;2022-09-24T04:23:52;12.50;99.90
44579;DHT22;37422;51.402;0.016;2022-09-24T04:26:20;12.60;99.90
44579;DHT22;37422;51.402;0.016;2022-09-24T04:28:48;12.50;99.90
44579;DHT22;37422;51.402;0.016;2022-09-24T04:31:19;12.40;99.90
44579;DHT22;37422;51.402;0.016;2022-09-24T04:33:51;12.40;99.90
44579;DHT22;37422;51.402;0.016;2022-09-24T04:36:24;12.30;99.90
44579;DHT22;37422;51.402;0.016;2022-09-24T04:38:52;12.30;99.90
44579;DHT22;37422;51.402;0.016;2022-09-24T04:41:19;12.30;99.90
44579;DHT22;37422;51.402;0.016;2022-09-24T04:43:50;12.40;99.90
44579;DHT22;37422;51.402;0.016;2022-09-24T04:46:18;12.30;99.90
44579;DHT22;37422;51.402;0.016;2022-09-24T04:48:46;12.30;99.90
44579;DHT22;37422;51.402;0.016;2022-09-24T04:51:14;12.20;99.90
44579;DHT22;37422;51.402;0.016;2022-09-24T04:53:42;12.10;99.90
44579;DHT22;37422;51.402;0.016;2022-09-24T04:56:09;12.10;99.90
44579;DHT22;37422;51.402;0.016;2022-09-24T04:58:39;12.00;99.90
44579;DHT22;37422;51.402;0.016;2022-09-24T05:01:08;11.90;99.90
44579;DHT22;37422;51.402;0.016;2022-09-24T05:03:38;11.80;99.90
44579;DHT22;37422;51.402;0.016;2022-09-24T05:06:10;11.70;99.90
44579;DHT22;37422;51.402;0.016;2022-09-24T05:08:48;11.60;99.90
44579;DHT22;37422;51.402;0.016;2022-09-24T05:11:16;11.70;99.90
44579;DHT22;37422;51.402;0.016;2022-09-24T05:13:48;11.50;99.90
44579;DHT22;37422;51.402;0.016;2022-09-24T05:16:18;11.40;99.90
44579;DHT22;37422;51.402;0.016;2022-09-24T05:18:47;11.30;99.90
44579;DHT22;37422;51.402;0.016;2022-09-24T05:21:16;11.30;99.90
44579;DHT22;37422;51.402;0.016;2022-09-24T05:23:44;11.20;99.90
44579;DHT22;37422;51.402;0.016;2022-09-24T05:26:12;11.10;99.90
44579;DHT22;37422;51.402;0.016;2022-09-24T05:28:58;11.10;99.90
44579;DHT22;37422;51.402;0.016;2022-09-24T05:31:29;11.00;99.90
44579;DHT22;37422;51.402;0.016;2022-09-24T05:33:58;10.90;99.90
44579;DHT22;37422;51.402;0.016;2022-09-24T05:36:37;10.90;99.90
44579;DHT22;37422;51.402;0.016;2022-09-24T05:39:09;10.80;99.90
44579;DHT22;37422;51.402;0.016;2022-09-24T05:41:41;10.80;99.90
44579;DHT22;37422;51.402;0.016;2022-09-24T05:44:10;10.70;99.90
44579;DHT22;37422;51.402;0.016;2022-09-24T05:46:42;10.60;99.90
44579;DHT22;37422;51.402;0.016;2022-09-24T05:49:13;10.60;99.90
44579;DHT22;37422;51.402;0.016;2022-09-24T05:51:47;10.60;99.90
44579;DHT22;37422;51.402;0.016;2022-09-24T05:54:16;10.50;99.90
44579;DHT22;37422;51.402;0.016;2022-09-24T05:56:48;10.50;99.90
44579;DHT22;37422;51.402;0.016;2022-09-24T05:59:19;10.40;99.90
44579;DHT22;37422;51.402;0.016;2022-09-24T06:01:49;10.40;99.90
44579;DHT22;37422;51.402;0.016;2022-09-24T06:04:29;10.40;99.90
44579;DHT22;37422;51.402;0.016;2022-09-24T06:06:57;10.40;99.90
44579;DHT22;37422;51.402;0.016;2022-09-24T06:09:26;10.30;99.90
44579;DHT22;37422;51.402;0.016;2022-09-24T06:11:54;10.30;99.90
44579;DHT22;37422;51.402;0.016;2022-09-24T06:14:27;10.30;99.90
44579;DHT22;37422;51.402;0.016;2022-09-24T06:17:05;10.30;99.90
44579;DHT22;37422;51.402;0.016;2022-09-24T06:19:33;10.30;99.90
44579;DHT22;37422;51.402;0.016;2022-09-24T06:22:06;10.40;99.90
44579;DHT22;37422;51.402;0.016;2022-09-24T06:24:35;10.40;99.90
44579;DHT22;37422;51.402;0.016;2022-09-24T06:27:12;10.50;99.90
44579;DHT22;37422;51.402;0.016;2022-09-24T06:29:46;10.60;99.90
44579;DHT22;37422;51.402;0.016;2022-09-24T06:32:17;10.60;99.90
44579;DHT22;37422;51.402;0.016;2022-09-24T06:34:52;10.60;99.90
44579;DHT22;37422;51.402;0.016;2022-09-24T06:37:26;10.70;99.90
44579;DHT22;37422;51.402;0.016;2022-09-24T06:39:57;10.80;99.90
44579;DHT22;37422;51.402;0.016;2022-09-24T06:42:25;10.90;99.90
44579;DHT22;37422;51.402;0.016;2022-09-24T06:45:00;11.00;99.90
44579;DHT22;37422;51.402;0.016;2022-09-24T06:47:31;11.10;99.90
44579;DHT22;37422;51.402;0.016;2022-09-24T06:49:59;11.30;99.90
44579;DHT22;37422;51.402;0.016;2022-09-24T06:52:28;11.30;99.90
44579;DHT22;37422;51.402;0.016;2022-09-24T06:54:59;11.50;99.90
44579;DHT22;37422;51.402;0.016;2022-09-24T06:57:30;11.50;99.90
44579;DHT22;37422;51.402;0.016;2022-09-24T06:59:58;11.70;99.90
44579;DHT22;37422;51.402;0.016;2022-09-24T07:02:25;11.80;99.90
44579;DHT22;37422;51.402;0.016;2022-09-24T07:04:56;11.90;99.90
44579;DHT22;37422;51.402;0.016;2022-09-24T07:07:24;12.10;99.90
44579;DHT22;37422;51.402;0.016;2022-09-24T07:10:04;12.20;99.90
44579;DHT22;37422;51.402;0.016;2022-09-24T07:12:40;12.30;99.90
44579;DHT22;37422;51.402;0.016;2022-09-24T07:15:09;12.40;99.90
44579;DHT22;37422;51.402;0.016;2022-09-24T07:17:39;12.50;99.90
44579;DHT22;37422;51.402;0.016;2022-09-24T07:20:28;12.70;99.90
44579;DHT22;37422;51.402;0.016;2022-09-24T07:22:56;13.00;99.90
44579;DHT22;37422;51.402;0.016;2022-09-24T07:25:33;13.10;99.90
44579;DHT22;37422;51.402;0.016;2022-09-24T07:31:23;13.80;99.90
44579;DHT22;37422;51.402;0.016;2022-09-24T07:34:07;14.40;99.90
44579;DHT22;37422;51.402;0.016;2022-09-24T07:36:39;14.90;99.90
44579;DHT22;37422;51.402;0.016;2022-09-24T07:39:14;15.40;99.90
44579;DHT22;37422;51.402;0.016;2022-09-24T07:41:47;15.80;99.90
44579;DHT22;37422;51.402;0.016;2022-09-24T07:44:18;16.20;99.90
44579;DHT22;37422;51.402;0.016;2022-09-24T07:46:47;16.50;99.90
44579;DHT22;37422;51.402;0.016;2022-09-24T07:49:18;16.80;99.90
44579;DHT22;37422;51.402;0.016;2022-09-24T07:51:46;17.20;99.90
44579;DHT22;37422;51.402;0.016;2022-09-24T07:54:15;17.50;99.90
44579;DHT22;37422;51.402;0.016;2022-09-24T07:56:45;17.70;99.90
44579;DHT22;37422;51.402;0.016;2022-09-24T07:59:25;17.80;99.90
44579;DHT22;37422;51.402;0.016;2022-09-24T08:01:59;18.20;99.90
44579;DHT22;37422;51.402;0.016;2022-09-24T08:04:30;17.80;99.90
44579;DHT22;37422;51.402;0.016;2022-09-24T08:06:59;17.80;99.90
44579;DHT22;37422;51.402;0.016;2022-09-24T08:12:24;17.40;99.90
44579;DHT22;37422;51.402;0.016;2022-09-24T08:14:53;17.40;99.90
44579;DHT22;37422;51.402;0.016;2022-09-24T08:17:23;17.20;99.90
44579;DHT22;37422;51.402;0.016;2022-09-24T08:19:51;17.30;99.90
44579;DHT22;37422;51.402;0.016;2022-09-24T08:22:23;17.40;99.90
44579;DHT22;37422;51.402;0.016;2022-09-24T08:24:53;17.50;99.90
44579;DHT22;37422;51.402;0.016;2022-09-24T08:27:24;17.60;99.90
44579;DHT22;37422;51.402;0.016;2022-09-24T08:29:52;17.60;99.90
44579;DHT22;37422;51.402;0.016;2022-09-24T08:32:28;17.60;99.90
44579;DHT22;37422;51.402;0.016;2022-09-24T08:34:57;17.60;99.90
44579;DHT22;37422;51.402;0.016;2022-09-24T08:37:29;17.60;99.90
44579;DHT22;37422;51.402;0.016;2022-09-24T08:39:57;17.70;99.90
44579;DHT22;37422;51.402;0.016;2022-09-24T08:42:36;17.60;99.90
44579;DHT22;37422;51.402;0.016;2022-09-24T08:45:11;17.30;99.90
44579;DHT22;37422;51.402;0.016;2022-09-24T08:48:17;17.00;99.60
44579;DHT22;37422;51.402;0.016;2022-09-24T08:51:01;16.70;99.90
44579;DHT22;37422;51.402;0.016;2022-09-24T08:53:52;16.60;99.90
44579;DHT22;37422;51.402;0.016;2022-09-24T08:56:26;16.50;99.90
44579;DHT22;37422;51.402;0.016;2022-09-24T08:59:04;16.50;99.90
44579;DHT22;37422;51.402;0.016;2022-09-24T09:04:45;16.30;99.90
44579;DHT22;37422;51.402;0.016;2022-09-24T09:10:34;16.00;99.90
44579;DHT22;37422;51.402;0.016;2022-09-24T09:13:37;16.00;99.90
44579;DHT22;37422;51.402;0.016;2022-09-24T09:16:26;15.90;99.90
44579;DHT22;37422;51.402;0.016;2022-09-24T09:19:05;16.00;99.90
44579;DHT22;37422;51.402;0.016;2022-09-24T09:21:41;16.00;99.90
44579;DHT22;37422;51.402;0.016;2022-09-24T09:24:26;16.00;99.90
44579;DHT22;37422;51.402;0.016;2022-09-24T09:27:11;16.20;99.90
44579;DHT22;37422;51.402;0.016;2022-09-24T09:30:54;16.30;99.90
44579;DHT22;37422;51.402;0.016;2022-09-24T09:36:47;17.30;99.90
44579;DHT22;37422;51.402;0.016;2022-09-24T09:39:21;17.80;99.90
44579;DHT22;37422;51.402;0.016;2022-09-24T09:44:25;18.80;99.90
44579;DHT22;37422;51.402;0.016;2022-09-24T09:47:04;19.10;99.90
44579;DHT22;37422;51.402;0.016;2022-09-24T09:49:38;19.60;99.40
44579;DHT22;37422;51.402;0.016;2022-09-24T09:52:21;19.70;99.10
44579;DHT22;37422;51.402;0.016;2022-09-24T09:54:51;19.80;98.90
44579;DHT22;37422;51.402;0.016;2022-09-24T09:57:29;20.00;98.60
44579;DHT22;37422;51.402;0.016;2022-09-24T10:00:04;20.10;98.40
44579;DHT22;37422;51.402;0.016;2022-09-24T10:02:41;20.10;97.80
44579;DHT22;37422;51.402;0.016;2022-09-24T10:05:21;20.00;97.80
44579;DHT22;37422;51.402;0.016;2022-09-24T10:07:58;20.10;96.50
44579;DHT22;37422;51.402;0.016;2022-09-24T10:10:28;20.00;97.50
44579;DHT22;37422;51.402;0.016;2022-09-24T10:13:11;20.40;97.10
44579;DHT22;37422;51.402;0.016;2022-09-24T10:15:56;20.60;95.60
44579;DHT22;37422;51.402;0.016;2022-09-24T10:18:48;20.80;95.30
44579;DHT22;37422;51.402;0.016;2022-09-24T10:21:33;21.20;95.10
44579;DHT22;37422;51.402;0.016;2022-09-24T10:24:10;21.40;94.90
44579;DHT22;37422;51.402;0.016;2022-09-24T10:26:40;21.40;95.60
44579;DHT22;37422;51.402;0.016;2022-09-24T10:29:24;21.40;95.40
44579;DHT22;37422;51.402;0.016;2022-09-24T10:32:29;21.40;93.90
44579;DHT22;37422;51.402;0.016;2022-09-24T10:34:59;21.40;94.60
44579;DHT22;37422;51.402;0.016;2022-09-24T10:37:29;21.60;95.10
44579;DHT22;37422;51.402;0.016;2022-09-24T10:40:09;21.90;95.00
44579;DHT22;37422;51.402;0.016;2022-09-24T10:42:41;22.30;93.60
44579;DHT22;37422;51.402;0.016;2022-09-24T10:45:15;22.90;94.60
44579;DHT22;37422;51.402;0.016;2022-09-24T10:53:52;25.50;91.70
44579;DHT22;37422;51.402;0.016;2022-09-24T10:56:38;26.40;88.50
44579;DHT22;37422;51.402;0.016;2022-09-24T10:59:56;26.80;89.20
44579;DHT22;37422;51.402;0.016;2022-09-24T11:02:41;26.80;84.10
44579;DHT22;37422;51.402;0.016;2022-09-24T11:05:23;26.30;85.40
44579;DHT22;37422;51.402;0.016;2022-09-24T11:13:54;24.80;82.90
44579;DHT22;37422;51.402;0.016;2022-09-24T11:16:42;24.10;82.30
44579;DHT22;37422;51.402;0.016;2022-09-24T11:22:11;23.30;87.80
44579;DHT22;37422;51.402;0.016;2022-09-24T11:30:12;22.20;86.10
44579;DHT22;37422;51.402;0.016;2022-09-24T11:36:30;22.60;83.50
44579;DHT22;37422;51.402;0.016;2022-09-24T11:39:49;22.50;83.60
44579;DHT22;37422;51.402;0.016;2022-09-24T11:48:02;21.40;85.90
44579;DHT22;37422;51.402;0.016;2022-09-24T11:50:25;21.70;85.80
44579;DHT22;37422;51.402;0.016;2022-09-24T11:53:09;22.50;82.70
44579;DHT22;37422;51.402;0.016;2022-09-24T11:55:46;23.00;82.80
44579;DHT22;37422;51.402;0.016;2022-09-24T11:58:32;23.60;83.30
44579;DHT22;37422;51.402;0.016;2022-09-24T12:01:22;24.30;80.00
44579;DHT22;37422;51.402;0.016;2022-09-24T12:04:01;24.60;77.90
44579;DHT22;37422;51.402;0.016;2022-09-24T12:06:44;25.00;78.90
44579;DHT22;37422;51.402;0.016;2022-09-24T12:09:36;25.20;75.90
44579;DHT22;37422;51.402;0.016;2022-09-24T12:12:16;25.10;76.80
44579;DHT22;37422;51.402;0.016;2022-09-24T12:15:13;24.70;78.30
44579;DHT22;37422;51.402;0.016;2022-09-24T12:18:11;24.50;74.20
44579;DHT22;37422;51.402;0.016;2022-09-24T12:20:54;24.60;71.90
44579;DHT22;37422;51.402;0.016;2022-09-24T12:23:29;24.90;72.80
44579;DHT22;37422;51.402;0.016;2022-09-24T12:26:02;25.00;74.70
44579;DHT22;37422;51.402;0.016;2022-09-24T12:29:02;25.30;74.70
44579;DHT22;37422;51.402;0.016;2022-09-24T12:32:22;25.50;73.00
44579;DHT22;37422;51.402;0.016;2022-09-24T12:43:44;25.10;70.10
44579;DHT22;37422;51.402;0.016;2022-09-24T12:46:19;25.20;70.60
44579;DHT22;37422;51.402;0.016;2022-09-24T12:48:54;25.40;69.30
44579;DHT22;37422;51.402;0.016;2022-09-24T12:51:23;25.60;72.30
44579;DHT22;37422;51.402;0.016;2022-09-24T12:54:36;25.70;71.10
44579;DHT22;37422;51.402;0.016;2022-09-24T12:57:13;25.10;68.20
44579;DHT22;37422;51.402;0.016;2022-09-24T12:59:57;24.60;71.20
44579;DHT22;37422;51.402;0.016;2022-09-24T13:02:43;23.80;70.80
44579;DHT22;37422;51.402;0.016;2022-09-24T13:05:24;23.10;71.20
44579;DHT22;37422;51.402;0.016;2022-09-24T13:10:57;22.30;72.70
44579;DHT22;37422;51.402;0.016;2022-09-24T13:13:35;22.10;73.90
44579;DHT22;37422;51.402;0.016;2022-09-24T13:16:18;21.90;74.50
44579;DHT22;37422;51.402;0.016;2022-09-24T13:18:55;21.70;75.30
44579;DHT22;37422;51.402;0.016;2022-09-24T13:21:31;21.60;74.90
44579;DHT22;37422;51.402;0.016;2022-09-24T13:24:12;21.30;75.00
44579;DHT22;37422;51.402;0.016;2022-09-24T13:29:40;21.10;76.00
44579;DHT22;37422;51.402;0.016;2022-09-24T13:32:16;20.90;75.60
44579;DHT22;37422;51.402;0.016;2022-09-24T13:34:53;20.80;75.60
44579;DHT22;37422;51.402;0.016;2022-09-24T13:37:34;20.70;76.00
44579;DHT22;37422;51.402;0.016;2022-09-24T13:40:20;20.70;76.80
44579;DHT22;37422;51.402;0.016;2022-09-24T13:42:56;20.70;77.10
44579;DHT22;37422;51.402;0.016;2022-09-24T13:45:27;20.70;77.50
44579;DHT22;37422;51.402;0.016;2022-09-24T13:48:11;20.70;77.50
44579;DHT22;37422;51.402;0.016;2022-09-24T13:50:49;20.80;76.80
44579;DHT22;37422;51.402;0.016;2022-09-24T13:53:41;20.80;75.70
44579;DHT22;37422;51.402;0.016;2022-09-24T13:56:15;20.70;75.50
44579;DHT22;37422;51.402;0.016;2022-09-24T13:58:47;20.60;76.40
44579;DHT22;37422;51.402;0.016;2022-09-24T14:01:26;20.50;76.40
44579;DHT22;37422;51.402;0.016;2022-09-24T14:04:02;20.40;75.30
44579;DHT22;37422;51.402;0.016;2022-09-24T14:07:11;20.40;76.80
44579;DHT22;37422;51.402;0.016;2022-09-24T14:09:41;20.40;76.60
44579;DHT22;37422;51.402;0.016;2022-09-24T14:12:16;20.50;77.70
44579;DHT22;37422;51.402;0.016;2022-09-24T14:14:55;20.40;77.70
44579;DHT22;37422;51.402;0.016;2022-09-24T14:17:29;20.40;78.00
44579;DHT22;37422;51.402;0.016;2022-09-24T14:19:58;20.40;78.50
44579;DHT22;37422;51.402;0.016;2022-09-24T14:22:36;20.40;75.20
44579;DHT22;37422;51.402;0.016;2022-09-24T14:27:44;20.10;76.00
44579;DHT22;37422;51.402;0.016;2022-09-24T14:30:24;20.00;77.00
44579;DHT22;37422;51.402;0.016;2022-09-24T14:32:56;19.70;77.70
44579;DHT22;37422;51.402;0.016;2022-09-24T14:35:32;19.50;78.70
44579;DHT22;37422;51.402;0.016;2022-09-24T14:38:04;19.30;79.30
44579;DHT22;37422;51.402;0.016;2022-09-24T14:43:58;19.10;81.50
44579;DHT22;37422;51.402;0.016;2022-09-24T14:46:44;19.10;82.30
44579;DHT22;37422;51.402;0.016;2022-09-24T14:49:26;19.00;81.90
44579;DHT22;37422;51.402;0.016;2022-09-24T14:52:02;19.00;82.70
44579;DHT22;37422;51.402;0.016;2022-09-24T14:54:38;19.00;83.20
44579;DHT22;37422;51.402;0.016;2022-09-24T14:59:44;18.90;82.50
44579;DHT22;37422;51.402;0.016;2022-09-24T15:04:49;19.00;81.60
44579;DHT22;37422;51.402;0.016;2022-09-24T15:07:25;19.00;81.50
44579;DHT22;37422;51.402;0.016;2022-09-24T15:09:58;18.90;81.60
44579;DHT22;37422;51.402;0.016;2022-09-24T15:12:42;19.00;81.90
44579;DHT22;37422;51.402;0.016;2022-09-24T15:17:44;19.00;82.20
44579;DHT22;37422;51.402;0.016;2022-09-24T15:20:14;19.10;81.90
44579;DHT22;37422;51.402;0.016;2022-09-24T15:22:45;19.20;81.60
44579;DHT22;37422;51.402;0.016;2022-09-24T15:25:21;19.20;81.60
44579;DHT22;37422;51.402;0.016;2022-09-24T15:27:49;19.00;82.10
44579;DHT22;37422;51.402;0.016;2022-09-24T15:30:21;19.20;82.80
44579;DHT22;37422;51.402;0.016;2022-09-24T15:32:55;19.10;83.20
44579;DHT22;37422;51.402;0.016;2022-09-24T15:36:22;18.80;83.20
44579;DHT22;37422;51.402;0.016;2022-09-24T15:38:51;18.50;83.20
44579;DHT22;37422;51.402;0.016;2022-09-24T15:41:39;18.30;83.10
44579;DHT22;37422;51.402;0.016;2022-09-24T15:44:19;18.20;83.10
44579;DHT22;37422;51.402;0.016;2022-09-24T15:46:58;18.00;82.90
44579;DHT22;37422;51.402;0.016;2022-09-24T15:49:32;17.80;83.00
44579;DHT22;37422;51.402;0.016;2022-09-24T15:52:18;17.70;83.10
44579;DHT22;37422;51.402;0.016;2022-09-24T15:55:33;17.60;83.20
44579;DHT22;37422;51.402;0.016;2022-09-24T15:58:28;17.50;83.50
44579;DHT22;37422;51.402;0.016;2022-09-24T16:01:16;17.40;84.30
44579;DHT22;37422;51.402;0.016;2022-09-24T16:03:48;17.30;83.70
44579;DHT22;37422;51.402;0.016;2022-09-24T16:06:22;17.20;83.80
44579;DHT22;37422;51.402;0.016;2022-09-24T16:08:52;17.20;84.00
44579;DHT22;37422;51.402;0.016;2022-09-24T16:11:20;17.20;84.10
44579;DHT22;37422;51.402;0.016;2022-09-24T16:14:02;17.20;84.00
44579;DHT22;37422;51.402;0.016;2022-09-24T16:16:37;17.10;84.00
44579;DHT22;37422;51.402;0.016;2022-09-24T16:19:32;17.10;84.00
44579;DHT22;37422;51.402;0.016;2022-09-24T16:22:06;17.10;83.70
44579;DHT22;37422;51.402;0.016;2022-09-24T16:24:34;16.50;83.30
44579;DHT22;37422;51.402;0.016;2022-09-24T16:27:03;17.00;83.50
44579;DHT22;37422;51.402;0.016;2022-09-24T16:29:33;17.00;83.40
44579;DHT22;37422;51.402;0.016;2022-09-24T16:32:01;16.90;83.10
44579;DHT22;37422;51.402;0.016;2022-09-24T16:34:32;16.80;82.90
44579;DHT22;37422;51.402;0.016;2022-09-24T16:37:01;16.80;83.30
44579;DHT22;37422;51.402;0.016;2022-09-24T16:39:31;16.70;83.30
44579;DHT22;37422;51.402;0.016;2022-09-24T16:42:02;16.70;83.60
44579;DHT22;37422;51.402;0.016;2022-09-24T16:44:32;16.60;83.80
44579;DHT22;37422;51.402;0.016;2022-09-24T16:47:02;16.60;83.90
44579;DHT22;37422;51.402;0.016;2022-09-24T16:49:31;16.50;84.50
44579;DHT22;37422;51.402;0.016;2022-09-24T16:51:59;16.50;85.10
44579;DHT22;37422;51.402;0.016;2022-09-24T16:54:30;16.50;85.00
44579;DHT22;37422;51.402;0.016;2022-09-24T16:57:03;16.40;85.50
44579;DHT22;37422;51.402;0.016;2022-09-24T16:59:34;16.40;85.90
44579;DHT22;37422;51.402;0.016;2022-09-24T17:02:05;16.30;86.30
44579;DHT22;37422;51.402;0.016;2022-09-24T17:04:34;16.30;86.70
44579;DHT22;37422;51.402;0.016;2022-09-24T17:07:02;16.30;86.90
44579;DHT22;37422;51.402;0.016;2022-09-24T17:09:29;16.20;86.60
44579;DHT22;37422;51.402;0.016;2022-09-24T17:12:18;16.20;86.60
44579;DHT22;37422;51.402;0.016;2022-09-24T17:14:49;16.20;86.70
44579;DHT22;37422;51.402;0.016;2022-09-24T17:17:16;16.20;86.60
44579;DHT22;37422;51.402;0.016;2022-09-24T17:19:47;16.20;86.60
44579;DHT22;37422;51.402;0.016;2022-09-24T17:22:14;16.10;86.50
44579;DHT22;37422;51.402;0.016;2022-09-24T17:24:43;16.10;86.50
44579;DHT22;37422;51.402;0.016;2022-09-24T17:27:12;16.00;86.70
44579;DHT22;37422;51.402;0.016;2022-09-24T17:29:41;16.00;86.80
44579;DHT22;37422;51.402;0.016;2022-09-24T17:35:10;15.90;87.70
44579;DHT22;37422;51.402;0.016;2022-09-24T17:37:41;15.80;87.70
44579;DHT22;37422;51.402;0.016;2022-09-24T17:40:10;15.80;88.20
44579;DHT22;37422;51.402;0.016;2022-09-24T17:42:39;15.70;88.30
44579;DHT22;37422;51.402;0.016;2022-09-24T17:45:16;15.60;89.70
44579;DHT22;37422;51.402;0.016;2022-09-24T17:47:49;15.60;89.30
44579;DHT22;37422;51.402;0.016;2022-09-24T17:50:23;15.50;89.30
44579;DHT22;37422;51.402;0.016;2022-09-24T17:52:51;15.50;89.40
44579;DHT22;37422;51.402;0.016;2022-09-24T17:55:19;15.50;89.80
44579;DHT22;37422;51.402;0.016;2022-09-24T17:57:46;15.50;89.90
44579;DHT22;37422;51.402;0.016;2022-09-24T18:00:14;15.50;89.90
44579;DHT22;37422;51.402;0.016;2022-09-24T18:02:44;15.50;89.90
44579;DHT22;37422;51.402;0.016;2022-09-24T18:05:12;15.50;90.00
44579;DHT22;37422;51.402;0.016;2022-09-24T18:07:50;15.50;90.50
44579;DHT22;37422;51.402;0.016;2022-09-24T18:10:19;15.50;90.90